EHEH

Eindhoven Airport

Eindhoven, The Netherlands
METAR EHEH 172225Z AUTO VRB02KT 9999 NCD 14/11 Q1018 BLU
Observed Flight Rules
Jul-17 @ 22:25 UTC (27 minutes ago) Visual Flight Rules
Wind Visibility Clouds
Variable at 2 knots 10,000+ meters
  • Clear skies
Temperatures Readings
Current 14°C / 57°F
Dewpoint 11°C / 52°F
Humidity 82%
Altimeter 30.06" Hg
Pressure 1018 hPa
Elevation 22
METAR EHEH 172225Z AUTO VRB02KT 9999 NCD 14/11 Q1018 BLU
Observed Flight Rules
Jul-17 @ 22:25 UTC
(27 minutes ago)
VFR
Wind Visibility
Variable at 2 knots 10,000+ meters
Clouds
  • Clear skies
Temperature Dewpoint
14°C / 57°F 11°C / 52°F
Humidity Altimeter Pressure
82% 30.06" Hg 1018 hPa